| Date | Time | Temp. (oF) | Dew Point (oF) | Rel. Hum. (%) | Press. (in.) | Wind Dir. (deg.) | Wind Speed (mph) | Hourly Rainfall (i n.) |
|
|---|---|---|---|---|---|---|---|---|---|
| 1 | 07/02 | 24:00 | 77 | 71 | 82 | 30.18 | 190 | 10 | 0.00 |
| 2 | 07/01 | 23:00 | 77 | 71 | 82 | 30.19 | 270 | 10 | 0.00 |
| 3 | 07/01 | 22:00 | 76 | 70 | 82 | 30.18 | 100 | 6 | 0.00 |
| 4 | 07/01 | 21:00 | 76 | 69 | 81 | 30.16 | 190 | 6 | 0.00 |
| 5 | 07/01 | 20:00 | 78 | 70 | 78 | 30.15 | 190 | 4 | 0.01 |
| 6 | 07/01 | 19:00 | 81 | 71 | 74 | 30.12 | 150 | 10 | 0.00 |
| 7 | 07/01 | 18:00 | 81 | 70 | 71 | 30.14 | 120 | 7 | 0.00 |
| 8 | 07/01 | 17:00 | 83 | 71 | 69 | 30.16 | 170 | 9 | 0.00 |
| 9 | 07/01 | 16:00 | 83 | 72 | 70 | 30.15 | 120 | 7 | 0.00 |
| 10 | 07/01 | 15:00 | 82 | 72 | 72 | 30.16 | 150 | 7 | 0.00 |
| 11 | 07/01 | 14:00 | 81 | 71 | 73 | 30.16 | 170 | 6 | 0.00 |
| 12 | 07/01 | 13:00 | 82 | 72 | 72 | 30.16 | 150 | 9 | 0.00 |
| 13 | 07/01 | 12:00 | 80 | 70 | 73 | 30.16 | 120 | 4 | 0.00 |
| 14 | 07/01 | 11:00 | 77 | 69 | 79 | 30.18 | 130 | 2 | 0.00 |
| 15 | 07/01 | 10:00 | 74 | 69 | 85 | 30.20 | 150 | 4 | 0.00 |
| 16 | 07/01 | 09:00 | 71 | 67 | 88 | 30.20 | 120 | 1 | 0.00 |
| 17 | 07/01 | 08:00 | 70 | 65 | 87 | 30.17 | 130 | 2 | 0.00 |
| 18 | 07/01 | 07:00 | 70 | 65 | 85 | 30.18 | 130 | 0 | 0.00 |
| 19 | 07/01 | 06:00 | 70 | 64 | 84 | 30.24 | 130 | 0 | 0.00 |
| 20 | 07/01 | 05:00 | 71 | 65 | 82 | 30.22 | 130 | 0 | 0.00 |
| 21 | 07/01 | 04:00 | 71 | 64 | 81 | 30.22 | 130 | 0 | 0.00 |
| 22 | 07/01 | 03:00 | 71 | 64 | 80 | 30.22 | 130 | 0 | 0.00 |
| 23 | 07/01 | 02:00 | 71 | 64 | 79 | 30.22 | 130 | 0 | 0.00 |
| 24 | 07/01 | 01:00 | 72 | 64 | 78 | 30.22 | 130 | 0 | 0.00 |